createdAt,value
2023-05-17T00:00:07.174Z,100750.79
2023-05-17T00:02:59.454Z,100739.27
2023-05-17T00:05:31.869Z,100746.94
2023-05-17T00:08:04.035Z,100745.66
2023-05-17T00:10:36.488Z,100734.48
2023-05-17T00:13:08.837Z,100752.63
2023-05-17T00:15:41.099Z,100751.35
2023-05-17T00:18:13.463Z,100750.16
2023-05-17T00:20:45.618Z,100753.00
2023-05-17T00:23:18.404Z,100758.13
2023-05-17T00:25:51.226Z,100756.70
2023-05-17T00:28:23.732Z,100752.77
2023-05-17T00:30:56.286Z,100748.72
2023-05-17T00:33:28.665Z,100747.41
2023-05-17T00:36:01.283Z,100746.16
2023-05-17T00:38:33.486Z,100747.98
2023-05-17T00:41:07.034Z,100748.42
2023-05-17T00:43:39.497Z,100753.84
2023-05-17T00:46:11.800Z,100757.48
2023-05-17T00:48:44.926Z,100758.25
2023-05-17T00:51:17.919Z,100762.33
2023-05-17T00:53:51.328Z,100762.34
2023-05-17T00:56:24.940Z,100763.73
2023-05-17T00:59:10.794Z,100764.77
2023-05-17T01:02:06.521Z,100776.83
2023-05-17T01:04:42.621Z,100777.55
2023-05-17T01:07:14.833Z,100779.46
2023-05-17T01:09:47.302Z,100769.20
2023-05-17T01:12:31.561Z,100780.35
2023-05-17T01:15:14.518Z,100776.89
2023-05-17T01:17:55.813Z,100777.36
2023-05-17T01:20:44.537Z,100784.16
2023-05-17T01:23:46.456Z,100784.14
2023-05-17T01:26:25.397Z,100776.66
2023-05-17T01:29:00.972Z,100781.27
2023-05-17T01:31:33.953Z,100784.42
2023-05-17T01:34:10.135Z,100787.70
2023-05-17T01:36:43.378Z,100788.52
2023-05-17T01:39:15.657Z,100782.83
2023-05-17T01:41:56.464Z,100783.18
2023-05-17T01:44:34.418Z,100792.24
2023-05-17T01:47:12.471Z,100790.70
2023-05-17T01:49:49.120Z,100788.11
2023-05-17T01:52:31.777Z,100783.48
2023-05-17T01:55:10.755Z,100781.99
2023-05-17T01:57:44.946Z,100787.27
2023-05-17T02:00:19.092Z,100787.77
2023-05-17T02:02:51.531Z,100788.11
2023-05-17T02:05:26.841Z,100794.03
2023-05-17T02:07:59.734Z,100786.98
2023-05-17T02:10:32.647Z,100786.13
2023-05-17T02:13:05.119Z,100787.91
2023-05-17T02:15:37.367Z,100790.95
2023-05-17T02:18:13.129Z,100794.77
2023-05-17T02:20:45.633Z,100797.77
2023-05-17T02:23:19.564Z,100799.11
2023-05-17T02:25:52.146Z,100801.89
2023-05-17T02:28:24.790Z,100798.75
2023-05-17T02:30:57.697Z,100786.64
2023-05-17T02:33:30.057Z,100802.66
2023-05-17T02:36:02.531Z,100796.09
2023-05-17T02:38:43.059Z,100814.43
2023-05-17T02:41:19.530Z,100821.47
2023-05-17T02:43:52.428Z,100832.77
2023-05-17T02:46:25.062Z,100839.70
2023-05-17T02:48:57.635Z,100842.23
2023-05-17T02:51:31.216Z,100845.52
2023-05-17T02:54:03.728Z,100847.45
2023-05-17T02:56:36.762Z,100850.23
2023-05-17T02:59:09.925Z,100839.40
2023-05-17T03:01:45.268Z,100838.03
2023-05-17T03:04:20.435Z,100823.86
2023-05-17T03:06:56.240Z,100816.98
2023-05-17T03:09:46.620Z,100820.59
2023-05-17T03:12:23.512Z,100822.95
2023-05-17T03:14:56.657Z,100825.09
2023-05-17T03:17:29.860Z,100845.56
2023-05-17T03:20:02.758Z,100860.37
2023-05-17T03:22:35.782Z,100860.05
2023-05-17T03:25:09.545Z,100858.61
2023-05-17T03:27:46.219Z,100856.89
2023-05-17T03:30:34.929Z,100846.13
2023-05-17T03:33:08.048Z,100843.73
2023-05-17T03:35:40.816Z,100848.45
2023-05-17T03:38:17.634Z,100859.25
2023-05-17T03:40:52.621Z,100869.02
2023-05-17T03:43:25.362Z,100869.61
2023-05-17T03:45:58.091Z,100855.33
2023-05-17T03:48:35.184Z,100874.95
2023-05-17T03:51:09.176Z,100881.40
2023-05-17T03:53:43.682Z,100887.33
2023-05-17T03:56:18.171Z,100885.91
2023-05-17T03:58:50.438Z,100894.46
2023-05-17T04:01:22.976Z,100898.27
2023-05-17T04:03:55.747Z,100901.73
2023-05-17T04:06:28.420Z,100890.10
2023-05-17T04:09:00.961Z,100905.23
2023-05-17T04:11:34.448Z,100903.37
2023-05-17T04:14:07.758Z,100898.90
2023-05-17T04:16:40.598Z,100892.90
2023-05-17T04:19:13.347Z,100885.05
2023-05-17T04:21:47.460Z,100889.84
2023-05-17T04:24:21.998Z,100886.50
2023-05-17T04:26:53.493Z,100891.39
2023-05-17T04:29:29.251Z,100894.11
2023-05-17T04:32:02.184Z,100893.52
2023-05-17T04:34:35.434Z,100892.46
2023-05-17T04:37:08.704Z,100877.94
2023-05-17T04:39:41.976Z,100890.36
2023-05-17T04:42:14.809Z,100890.40
2023-05-17T04:44:51.001Z,100900.20
2023-05-17T04:47:24.486Z,100903.04
2023-05-17T04:49:58.051Z,100905.88
2023-05-17T04:52:30.786Z,100910.85
2023-05-17T04:55:03.769Z,100909.46
2023-05-17T04:57:36.618Z,100911.44
2023-05-17T05:00:15.428Z,100913.45
2023-05-17T05:02:50.113Z,100915.58
2023-05-17T05:05:27.608Z,100902.26
2023-05-17T05:08:00.484Z,100912.23
2023-05-17T05:10:33.506Z,100915.30
2023-05-17T05:13:06.142Z,100901.41
2023-05-17T05:15:39.750Z,100914.30
2023-05-17T05:18:12.383Z,100918.48
2023-05-17T05:20:45.108Z,100924.20
2023-05-17T05:23:18.823Z,100924.68
2023-05-17T05:25:53.334Z,100914.42
2023-05-17T05:28:26.288Z,100935.27
2023-05-17T05:31:01.484Z,100935.91
2023-05-17T05:33:39.842Z,100933.60
2023-05-17T05:36:13.397Z,100935.14
2023-05-17T05:38:46.549Z,100937.95
2023-05-17T05:41:19.322Z,100941.48
2023-05-17T05:43:51.994Z,100943.06
2023-05-17T05:46:24.746Z,100948.90
2023-05-17T05:48:59.865Z,100950.18
2023-05-17T05:51:32.851Z,100947.86
2023-05-17T05:54:06.661Z,100951.70
2023-05-17T05:56:42.006Z,100961.02
2023-05-17T05:59:16.191Z,100958.42
2023-05-17T06:01:48.496Z,100957.67
2023-05-17T06:04:22.722Z,100948.75
2023-05-17T06:07:02.484Z,100948.29
2023-05-17T06:09:34.940Z,100950.52
2023-05-17T06:12:07.887Z,100953.42
2023-05-17T06:14:40.470Z,100948.77
2023-05-17T06:17:12.873Z,100960.52
2023-05-17T06:19:45.381Z,100961.15
2023-05-17T06:22:17.880Z,100961.58
2023-05-17T06:24:50.210Z,100965.23
2023-05-17T06:27:22.549Z,100963.44
2023-05-17T06:29:54.905Z,100963.17
2023-05-17T06:32:27.318Z,100961.33
2023-05-17T06:35:00.034Z,100961.98
2023-05-17T06:37:33.100Z,100962.61
2023-05-17T06:40:31.674Z,100967.19
2023-05-17T06:43:02.810Z,100968.84
2023-05-17T06:45:37.936Z,100974.18
2023-05-17T06:48:10.448Z,100976.70
2023-05-17T06:50:42.856Z,100985.77
2023-05-17T06:53:15.452Z,100992.35
2023-05-17T06:55:47.871Z,101000.23
2023-05-17T06:58:20.261Z,101001.35
2023-05-17T07:00:52.702Z,101008.40
2023-05-17T07:03:25.130Z,101010.30
2023-05-17T07:05:57.562Z,101006.17
2023-05-17T07:08:30.119Z,101005.02
2023-05-17T07:11:03.084Z,101011.20
2023-05-17T07:13:36.350Z,101007.16
2023-05-17T07:16:10.155Z,101004.06
2023-05-17T07:18:42.436Z,101010.50
2023-05-17T07:21:14.996Z,101012.42
2023-05-17T07:23:49.402Z,101009.29
2023-05-17T07:26:22.324Z,100997.89
2023-05-17T07:28:54.827Z,101013.31
2023-05-17T07:31:27.180Z,101017.52
2023-05-17T07:33:59.790Z,101023.43
2023-05-17T07:36:32.760Z,101022.75
2023-05-17T07:39:06.039Z,101024.73
2023-05-17T07:41:38.619Z,101030.30
2023-05-17T07:44:10.868Z,101024.45
2023-05-17T07:46:43.299Z,101036.34
2023-05-17T07:49:16.246Z,101041.30
2023-05-17T07:51:48.647Z,101039.80
2023-05-17T07:54:28.158Z,101043.29
2023-05-17T07:57:00.633Z,101051.70
2023-05-17T07:59:33.331Z,101049.09
2023-05-17T08:02:06.202Z,101049.90
2023-05-17T08:04:38.557Z,101051.40
2023-05-17T08:07:11.273Z,101054.02
2023-05-17T08:09:45.574Z,101052.84
2023-05-17T08:12:18.008Z,101050.77
2023-05-17T08:14:50.279Z,101044.58
2023-05-17T08:17:25.018Z,101040.52
2023-05-17T08:19:57.473Z,101037.91
2023-05-17T08:22:30.026Z,101034.24
2023-05-17T08:25:02.407Z,101042.15
2023-05-17T08:27:34.848Z,101027.08
2023-05-17T08:30:11.885Z,101034.54
2023-05-17T08:32:47.529Z,101041.89
2023-05-17T08:35:20.479Z,101048.66
2023-05-17T08:37:53.019Z,101053.01
2023-05-17T08:40:26.152Z,101046.67
2023-05-17T08:42:59.518Z,101051.88
2023-05-17T08:45:33.982Z,101062.35
2023-05-17T08:48:07.554Z,101065.29
2023-05-17T08:50:41.222Z,101064.11
2023-05-17T08:53:14.587Z,101064.84
2023-05-17T08:55:52.325Z,101065.35
2023-05-17T08:58:32.362Z,101070.16
2023-05-17T09:01:05.713Z,101069.21
2023-05-17T09:03:41.552Z,101067.23
2023-05-17T09:06:14.884Z,101064.65
2023-05-17T09:08:48.318Z,101073.50
2023-05-17T09:11:28.694Z,101067.55
2023-05-17T09:14:04.885Z,101063.64
2023-05-17T09:16:38.731Z,101062.70
2023-05-17T09:19:15.178Z,101059.12
2023-05-17T09:21:49.945Z,101050.37
2023-05-17T09:24:31.139Z,101059.02
2023-05-17T09:27:07.405Z,101046.55
2023-05-17T09:29:42.475Z,101056.90
2023-05-17T09:32:18.834Z,101061.10
2023-05-17T09:34:52.709Z,101060.59
2023-05-17T09:37:26.739Z,101063.11
2023-05-17T09:39:59.641Z,101067.54
2023-05-17T09:42:36.778Z,101070.73
2023-05-17T09:45:10.517Z,101069.10
2023-05-17T09:47:43.079Z,101069.27
2023-05-17T09:50:20.542Z,101062.52
2023-05-17T09:52:52.912Z,101068.77
2023-05-17T09:55:29.776Z,101069.00
2023-05-17T09:58:06.451Z,101055.55
2023-05-17T10:00:39.478Z,101066.77
2023-05-17T10:03:14.214Z,101068.61
2023-05-17T10:05:47.878Z,101071.95
2023-05-17T10:08:23.223Z,101068.13
2023-05-17T10:10:56.951Z,101067.01
2023-05-17T10:13:37.030Z,101057.80
2023-05-17T10:16:10.268Z,101075.52
2023-05-17T10:18:43.339Z,101079.61
2023-05-17T10:21:16.108Z,101066.48
2023-05-17T10:23:49.451Z,101074.03
2023-05-17T10:26:22.173Z,101061.94
2023-05-17T10:28:56.361Z,101076.79
2023-05-17T10:31:30.703Z,101078.05
2023-05-17T10:34:04.635Z,101080.29
2023-05-17T10:36:37.148Z,101080.86
2023-05-17T10:39:11.016Z,101087.11
2023-05-17T10:41:48.531Z,101089.97
2023-05-17T10:44:21.987Z,101088.70
2023-05-17T10:46:59.817Z,101088.43
2023-05-17T10:49:36.232Z,101089.46
2023-05-17T10:52:17.708Z,101081.54
2023-05-17T10:54:51.291Z,101073.65
2023-05-17T10:57:49.321Z,101093.73
2023-05-17T11:00:31.349Z,101098.66
2023-05-17T11:03:16.810Z,101094.08
2023-05-17T11:06:24.074Z,101092.63
2023-05-17T11:09:17.788Z,101093.73
2023-05-17T11:12:09.940Z,101097.98
2023-05-17T11:14:55.466Z,101101.88
2023-05-17T11:17:29.626Z,101102.89
2023-05-17T11:20:31.453Z,101105.75
2023-05-17T11:23:05.665Z,101108.30
2023-05-17T11:25:39.650Z,101110.52
2023-05-17T11:28:19.929Z,101112.52
2023-05-17T11:30:53.772Z,101111.20
2023-05-17T11:33:41.309Z,101115.36
2023-05-17T11:36:22.424Z,101112.83
2023-05-17T11:39:13.199Z,101114.59
2023-05-17T11:41:53.733Z,101116.73
2023-05-17T11:44:31.205Z,101112.20
2023-05-17T11:47:09.522Z,101112.11
2023-05-17T11:49:42.769Z,101114.02
2023-05-17T11:52:17.609Z,101112.22
2023-05-17T11:54:51.746Z,101111.27
2023-05-17T11:57:24.383Z,101097.05
2023-05-17T12:00:04.880Z,101117.42
2023-05-17T12:02:44.646Z,101114.95
2023-05-17T12:05:22.759Z,101115.78
2023-05-17T12:07:55.246Z,101118.69
2023-05-17T12:10:27.863Z,101120.95
2023-05-17T12:13:00.359Z,101119.41
2023-05-17T12:15:33.884Z,101121.94
2023-05-17T12:18:06.943Z,101123.40
2023-05-17T12:20:39.482Z,101123.36
2023-05-17T12:23:12.024Z,101124.35
2023-05-17T12:25:44.254Z,101123.93
2023-05-17T12:28:22.242Z,101133.85
2023-05-17T12:30:58.939Z,101139.02
2023-05-17T12:33:33.572Z,101140.75
2023-05-17T12:36:07.357Z,101136.42
2023-05-17T12:38:41.646Z,101138.00
2023-05-17T12:41:15.854Z,101134.45
2023-05-17T12:43:48.633Z,101134.70
2023-05-17T12:46:23.783Z,101134.50
2023-05-17T12:48:56.750Z,101134.60
2023-05-17T12:51:29.067Z,101137.82
2023-05-17T12:54:01.240Z,101117.77
2023-05-17T12:56:33.753Z,101141.32
2023-05-17T12:59:13.402Z,101141.83
2023-05-17T13:01:48.397Z,101146.44
2023-05-17T13:04:22.502Z,101135.33
2023-05-17T13:06:56.107Z,101138.17
2023-05-17T13:09:31.099Z,101133.07
2023-05-17T13:12:06.860Z,101131.52
2023-05-17T13:14:44.417Z,101127.08
2023-05-17T13:17:21.732Z,101127.23
2023-05-17T13:19:55.157Z,101120.98
2023-05-17T13:22:27.555Z,101118.73
2023-05-17T13:24:59.884Z,101127.56
2023-05-17T13:27:32.381Z,101126.39
2023-05-17T13:30:05.147Z,101128.80
2023-05-17T13:32:37.511Z,101125.83
2023-05-17T13:35:11.166Z,101128.80
2023-05-17T13:37:43.302Z,101128.12
2023-05-17T13:40:17.253Z,101130.61
2023-05-17T13:42:49.426Z,101121.29
2023-05-17T13:45:21.924Z,101135.42
2023-05-17T13:47:54.443Z,101139.93
2023-05-17T13:50:27.557Z,101140.75
2023-05-17T13:53:01.907Z,101147.06
2023-05-17T13:55:34.600Z,101146.04
2023-05-17T13:58:07.575Z,101145.06
2023-05-17T14:00:42.697Z,101151.17
2023-05-17T14:03:15.617Z,101151.15
2023-05-17T14:05:50.463Z,101151.05
2023-05-17T14:08:22.974Z,101148.11
2023-05-17T14:10:55.408Z,101151.67
2023-05-17T14:13:28.603Z,101157.77
2023-05-17T14:16:00.729Z,101153.73
2023-05-17T14:18:33.250Z,101150.50
2023-05-17T14:21:07.237Z,101151.34
2023-05-17T14:23:39.599Z,101147.80
2023-05-17T14:26:12.056Z,101155.08
2023-05-17T14:28:44.333Z,101154.70
2023-05-17T14:31:16.656Z,101161.65
2023-05-17T14:33:49.123Z,101172.80
2023-05-17T14:36:21.448Z,101176.19
2023-05-17T14:38:53.773Z,101171.98
2023-05-17T14:41:26.067Z,101184.82
2023-05-17T14:43:58.412Z,101188.66
2023-05-17T14:46:30.695Z,101190.39
2023-05-17T14:49:03.260Z,101178.17
2023-05-17T14:51:35.790Z,101194.34
2023-05-17T14:54:08.582Z,101205.08
2023-05-17T14:56:40.955Z,101205.80
2023-05-17T14:59:13.197Z,101205.19
2023-05-17T15:01:45.356Z,101206.84
2023-05-17T15:04:18.096Z,101206.20
2023-05-17T15:06:51.097Z,101205.67
2023-05-17T15:09:24.284Z,101207.59
2023-05-17T15:11:56.551Z,101216.27
2023-05-17T15:14:28.911Z,101214.37
2023-05-17T15:17:02.410Z,101211.63
2023-05-17T15:19:34.923Z,101216.73
2023-05-17T15:22:07.925Z,101218.77
2023-05-17T15:24:40.397Z,101222.77
2023-05-17T15:27:15.587Z,101220.82
2023-05-17T15:29:47.844Z,101220.31
2023-05-17T15:32:20.085Z,101216.39
2023-05-17T15:34:52.709Z,101229.41
2023-05-17T15:37:25.099Z,101229.50
2023-05-17T15:39:57.186Z,101228.04
2023-05-17T15:42:29.602Z,101228.59
2023-05-17T15:45:02.005Z,101229.94
2023-05-17T15:47:43.202Z,101234.66
2023-05-17T15:50:16.568Z,101232.03
2023-05-17T15:52:49.343Z,101238.98
2023-05-17T15:55:21.663Z,101244.61
2023-05-17T15:57:54.010Z,101247.52
2023-05-17T16:00:27.789Z,101234.27
2023-05-17T16:03:00.098Z,101251.36
2023-05-17T16:05:33.846Z,101247.00
2023-05-17T16:08:06.758Z,101245.08
2023-05-17T16:10:39.656Z,101247.05
2023-05-17T16:13:11.909Z,101258.44
2023-05-17T16:15:44.283Z,101257.56
2023-05-17T16:18:17.078Z,101267.02
2023-05-17T16:20:57.965Z,101265.86
2023-05-17T16:23:30.649Z,101266.92
2023-05-17T16:26:03.147Z,101272.46
2023-05-17T16:28:37.060Z,101273.96
2023-05-17T16:31:09.811Z,101273.34
2023-05-17T16:33:42.662Z,101262.07
2023-05-17T16:36:15.126Z,101282.37
2023-05-17T16:38:47.462Z,101286.38
2023-05-17T16:41:20.204Z,101283.34
2023-05-17T16:43:52.623Z,101287.17
2023-05-17T16:46:25.267Z,101279.20
2023-05-17T16:48:57.795Z,101292.45
2023-05-17T16:51:30.274Z,101295.08
2023-05-17T16:54:03.412Z,101293.98
2023-05-17T16:56:35.865Z,101290.70
2023-05-17T16:59:08.162Z,101298.20
2023-05-17T17:01:40.376Z,101302.55
2023-05-17T17:04:12.838Z,101307.98
2023-05-17T17:06:45.141Z,101310.07
2023-05-17T17:09:17.467Z,101296.13
2023-05-17T17:11:49.583Z,101307.86
2023-05-17T17:14:22.516Z,101309.73
2023-05-17T17:16:54.897Z,101309.73
2023-05-17T17:19:27.734Z,101313.59
2023-05-17T17:22:00.264Z,101316.23
2023-05-17T17:24:33.062Z,101318.05
2023-05-17T17:27:05.734Z,101323.96
2023-05-17T17:29:38.218Z,101297.23
2023-05-17T17:32:11.596Z,101321.70
2023-05-17T17:34:44.485Z,101332.53
2023-05-17T17:37:17.015Z,101335.02
2023-05-17T17:39:49.450Z,101333.66
2023-05-17T17:42:22.018Z,101332.63
2023-05-17T17:44:55.199Z,101332.98
2023-05-17T17:47:27.475Z,101331.87
2023-05-17T17:50:00.024Z,101335.40
2023-05-17T17:52:32.702Z,101332.52
2023-05-17T17:55:06.142Z,101340.36
2023-05-17T17:57:38.580Z,101344.75
2023-05-17T18:00:16.171Z,101344.02
2023-05-17T18:02:48.483Z,101333.07
2023-05-17T18:05:20.917Z,101342.04
2023-05-17T18:07:53.600Z,101338.27
2023-05-17T18:10:25.943Z,101335.84
2023-05-17T18:12:58.323Z,101335.59
2023-05-17T18:15:31.334Z,101332.77
2023-05-17T18:18:04.182Z,101334.23
2023-05-17T18:20:38.451Z,101338.77
2023-05-17T18:23:11.081Z,101344.13
2023-05-17T18:25:43.914Z,101347.73
2023-05-17T18:28:18.252Z,101350.29
2023-05-17T18:30:52.288Z,101348.09
2023-05-17T18:33:24.992Z,101350.83
2023-05-17T18:35:58.389Z,101358.10
2023-05-17T18:38:31.483Z,101366.56
2023-05-17T18:41:04.084Z,101374.14
2023-05-17T18:43:36.610Z,101379.06
2023-05-17T18:46:09.691Z,101378.26
2023-05-17T18:48:42.071Z,101375.52
2023-05-17T18:51:15.883Z,101378.70
2023-05-17T18:53:48.245Z,101387.00
2023-05-17T18:56:23.439Z,101402.78
2023-05-17T18:58:56.322Z,101410.33
2023-05-17T19:01:29.148Z,101413.52
2023-05-17T19:04:01.497Z,101420.98
2023-05-17T19:06:34.239Z,101423.86
2023-05-17T19:09:06.566Z,101428.72
2023-05-17T19:11:38.995Z,101433.59
2023-05-17T19:14:11.607Z,101433.58
2023-05-17T19:16:43.950Z,101434.70
2023-05-17T19:19:16.399Z,101437.80
2023-05-17T19:21:50.451Z,101448.52
2023-05-17T19:24:23.016Z,101452.89
2023-05-17T19:26:55.786Z,101459.60
2023-05-17T19:29:29.716Z,101463.71
2023-05-17T19:32:02.039Z,101447.94
2023-05-17T19:34:34.617Z,101462.25
2023-05-17T19:37:07.318Z,101462.52
2023-05-17T19:39:39.864Z,101465.40
2023-05-17T19:42:13.050Z,101468.80
2023-05-17T19:44:45.617Z,101479.11
2023-05-17T19:47:18.335Z,101489.11
2023-05-17T19:49:50.732Z,101495.13
2023-05-17T19:52:23.446Z,101502.30
2023-05-17T19:54:59.006Z,101497.15
2023-05-17T19:57:32.103Z,101513.31
2023-05-17T20:00:04.951Z,101517.58
2023-05-17T20:02:37.464Z,101520.21
2023-05-17T20:05:10.861Z,101516.78
2023-05-17T20:07:43.418Z,101494.25
2023-05-17T20:10:16.099Z,101517.77
2023-05-17T20:12:48.902Z,101525.73
2023-05-17T20:15:22.778Z,101527.30
2023-05-17T20:17:55.348Z,101524.22
2023-05-17T20:20:27.754Z,101521.44
2023-05-17T20:23:00.297Z,101520.95
2023-05-17T20:25:32.855Z,101525.04
2023-05-17T20:28:05.723Z,101529.20
2023-05-17T20:30:37.979Z,101524.37
2023-05-17T20:33:10.832Z,101529.89
2023-05-17T20:35:44.035Z,101531.80
2023-05-17T20:38:16.737Z,101534.30
2023-05-17T20:40:48.921Z,101529.14
2023-05-17T20:43:21.442Z,101536.72
2023-05-17T20:45:53.808Z,101542.33
2023-05-17T20:48:26.493Z,101550.46
2023-05-17T20:50:58.869Z,101559.24
2023-05-17T20:53:31.772Z,101562.36
2023-05-17T20:56:04.547Z,101557.79
2023-05-17T20:58:37.241Z,101554.87
2023-05-17T21:01:10.178Z,101558.70
2023-05-17T21:03:43.319Z,101560.98
2023-05-17T21:06:15.857Z,101558.19
2023-05-17T21:08:48.407Z,101559.80
2023-05-17T21:11:22.107Z,101567.75
2023-05-17T21:13:54.502Z,101568.73
2023-05-17T21:16:26.756Z,101568.94
2023-05-17T21:18:59.160Z,101569.16
2023-05-17T21:21:31.278Z,101576.75
2023-05-17T21:24:03.567Z,101581.00
2023-05-17T21:26:36.972Z,101578.01
2023-05-17T21:29:12.175Z,101575.04
2023-05-17T21:31:44.283Z,101577.30
2023-05-17T21:34:16.428Z,101573.19
2023-05-17T21:36:48.602Z,101573.61
2023-05-17T21:39:20.636Z,101572.00
2023-05-17T21:41:53.076Z,101576.20
2023-05-17T21:44:25.461Z,101578.58
2023-05-17T21:46:59.074Z,101581.41
2023-05-17T21:49:31.554Z,101588.38
2023-05-17T21:52:03.688Z,101593.89
2023-05-17T21:54:36.225Z,101595.08
2023-05-17T21:57:08.696Z,101597.60
2023-05-17T21:59:41.064Z,101597.95
2023-05-17T22:02:13.442Z,101599.88
2023-05-17T22:04:45.684Z,101594.23
2023-05-17T22:07:17.996Z,101590.28
2023-05-17T22:12:50.186Z,101592.02
2023-05-17T22:15:23.407Z,101595.86
2023-05-17T22:17:56.023Z,101595.55
2023-05-17T22:20:29.468Z,101597.89
2023-05-17T22:23:03.154Z,101600.38
2023-05-17T22:25:35.618Z,101602.48
2023-05-17T22:28:07.924Z,101599.15
2023-05-17T22:30:40.941Z,101583.80
2023-05-17T22:33:16.432Z,101594.41
2023-05-17T22:35:53.645Z,101591.23
2023-05-17T22:38:26.091Z,101588.25
2023-05-17T22:40:58.382Z,101587.94
2023-05-17T22:43:30.751Z,101588.36
2023-05-17T22:46:03.081Z,101587.33
2023-05-17T22:48:37.464Z,101561.56
2023-05-17T22:51:10.096Z,101588.58
2023-05-17T22:53:42.473Z,101599.73
2023-05-17T22:56:15.104Z,101601.95
2023-05-17T22:58:47.556Z,101604.20
2023-05-17T23:01:20.113Z,101610.70
2023-05-17T23:03:52.414Z,101614.52
2023-05-17T23:06:26.248Z,101612.06
2023-05-17T23:09:00.320Z,101610.86
2023-05-17T23:11:35.117Z,101608.35
2023-05-17T23:14:05.942Z,101610.64
2023-05-17T23:16:38.382Z,101609.40
2023-05-17T23:19:10.851Z,101609.08
2023-05-17T23:21:43.705Z,101614.11
2023-05-17T23:24:16.228Z,101616.70
2023-05-17T23:26:48.910Z,101621.88
2023-05-17T23:29:21.591Z,101623.10
2023-05-17T23:31:54.493Z,101619.70
2023-05-17T23:34:26.870Z,101626.96
2023-05-17T23:36:59.261Z,101631.48
2023-05-17T23:39:31.549Z,101630.64
2023-05-17T23:42:03.844Z,101633.70
2023-05-17T23:44:36.001Z,101631.55
2023-05-17T23:47:10.419Z,101628.74
2023-05-17T23:49:42.760Z,101641.20
2023-05-17T23:52:15.146Z,101635.00
2023-05-17T23:54:48.439Z,101639.98
2023-05-17T23:57:20.621Z,101637.95
2023-05-17T23:59:53.403Z,101643.46
